Time;durP1;ratioP1;P1;durP2;ratioP2;P2;SDS_P1;SDS_P2;PMS_P1;PMS_P2;Temp;Humidity;BMP_temperature;BMP_pressure;BME280_temperature;BME280_humidity;BME280_pressure;Samples;Min_cycle;Max_cycle;Signal;HPM_P1;HPM_P2
2024/02/28 00:00:05;;;;;;;18.93;17.07;;;;;;;6.10;75.29;101236.69;5048734;28;20214;-77
2024/02/28 00:02:31;;;;;;;18.70;17.00;;;;;;;6.13;75.02;101230.69;5055319;28;20201;-77
2024/02/28 00:04:58;;;;;;;17.17;15.67;;;;;;;6.23;75.42;101240.31;5060299;28;20218;-78
2024/02/28 00:07:25;;;;;;;17.87;16.30;;;;;;;6.09;75.19;101249.63;5058758;28;20213;-78
2024/02/28 00:09:51;;;;;;;18.17;16.77;;;;;;;6.08;75.29;101250.47;5060168;28;20558;-76
2024/02/28 00:12:18;;;;;;;18.17;16.50;;;;;;;6.08;74.84;101253.94;5057983;28;20724;-78
2024/02/28 00:14:45;;;;;;;18.90;16.90;;;;;;;6.14;74.45;101263.50;5056828;28;20229;-77
2024/02/28 00:17:12;;;;;;;16.03;14.83;;;;;;;6.14;74.40;101263.50;5056467;28;20213;-77
2024/02/28 00:19:39;;;;;;;17.97;16.37;;;;;;;6.03;74.56;101281.53;5065826;28;20209;-78
2024/02/28 00:22:05;;;;;;;20.50;18.67;;;;;;;6.00;74.10;101288.38;5054632;28;20228;-77
2024/02/28 00:24:31;;;;;;;18.57;17.17;;;;;;;5.93;74.04;101284.81;5054516;28;20251;-76
2024/02/28 00:26:58;;;;;;;18.17;16.57;;;;;;;5.91;74.16;101292.56;5053581;28;20640;-78
2024/02/28 00:29:24;;;;;;;18.20;16.50;;;;;;;5.89;74.71;101283.03;5045718;28;20209;-78
2024/02/28 00:31:52;;;;;;;21.90;17.27;;;;;;;5.78;74.64;101296.69;5044379;28;20680;-77
2024/02/28 00:34:18;;;;;;;19.30;17.63;;;;;;;5.80;74.50;101294.13;5053848;28;20761;-77
2024/02/28 00:36:45;;;;;;;19.47;17.67;;;;;;;5.74;74.97;101300.06;5063483;28;20606;-76
2024/02/28 00:39:11;;;;;;;21.70;19.80;;;;;;;5.72;74.42;101299.19;5054094;28;20629;-77
2024/02/28 00:41:37;;;;;;;20.83;19.03;;;;;;;5.70;74.71;101300.03;5054515;28;20668;-78
2024/02/28 00:44:05;;;;;;;19.50;17.80;;;;;;;5.67;74.65;101295.69;5063042;28;20228;-77
2024/02/28 00:46:31;;;;;;;20.57;18.57;;;;;;;5.65;74.56;101296.47;5053834;28;20201;-78
2024/02/28 00:48:59;;;;;;;20.77;18.97;;;;;;;5.66;75.09;101287.88;5054532;28;20204;-78
2024/02/28 00:51:25;;;;;;;19.83;18.10;;;;;;;5.61;75.29;101279.16;5054228;28;20205;-78
2024/02/28 00:53:51;;;;;;;20.27;18.53;;;;;;;5.63;75.61;101256.75;5054198;28;20221;-78
2024/02/28 00:56:18;;;;;;;21.20;19.07;;;;;;;5.66;75.47;101249.88;5062011;28;20299;-77
2024/02/28 00:58:45;;;;;;;22.10;19.67;;;;;;;5.61;75.94;101242.91;5045838;28;20207;-77
2024/02/28 01:01:11;;;;;;;20.93;19.03;;;;;;;5.50;76.60;101253.09;5037922;28;20197;-78
2024/02/28 01:03:37;;;;;;;21.07;19.13;;;;;;;5.46;76.80;101228.88;5052941;28;20255;-77
2024/02/28 01:06:05;;;;;;;22.03;19.93;;;;;;;5.50;76.50;101215.13;5053081;28;20201;-78
2024/02/28 01:08:31;;;;;;;18.53;16.83;;;;;;;5.42;75.86;101229.69;5053049;28;20212;-76
2024/02/28 01:10:58;;;;;;;20.00;18.30;;;;;;;5.29;77.44;101212.22;5055606;28;20205;-78
2024/02/28 01:13:25;;;;;;;20.93;19.03;;;;;;;5.26;77.28;101202.69;5061021;28;20255;-78
2024/02/28 01:15:51;;;;;;;19.87;18.20;;;;;;;5.23;76.72;101200.06;5055012;28;20228;-78
2024/02/28 01:18:17;;;;;;;19.83;18.03;;;;;;;5.23;76.58;101210.41;5054085;28;20205;-78
2024/02/28 01:20:44;;;;;;;20.50;18.40;;;;;;;5.25;75.94;101216.50;5053381;28;20199;-77
2024/02/28 01:23:12;;;;;;;21.10;19.07;;;;;;;5.23;75.84;101230.25;5054060;28;20805;-78
2024/02/28 01:25:38;;;;;;;20.13;18.23;;;;;;;5.23;75.35;101231.13;5053922;28;20224;-78
2024/02/28 01:28:05;;;;;;;21.30;19.30;;;;;;;5.21;75.73;101237.13;5051771;28;20217;-78
2024/02/28 01:30:31;;;;;;;19.70;18.00;;;;;;;5.20;76.16;101235.41;5044998;28;20240;-77
2024/02/28 01:32:58;;;;;;;20.27;18.43;;;;;;;5.20;76.68;101228.50;5055681;28;20206;-78
2024/02/28 01:35:24;;;;;;;19.90;18.10;;;;;;;5.13;77.08;101211.13;5053934;28;20252;-78
2024/02/28 01:37:50;;;;;;;20.70;18.70;;;;;;;5.07;77.85;101186.00;5053731;28;20205;-77
2024/02/28 01:40:18;;;;;;;21.53;19.53;;;;;;;5.05;78.04;101182.53;5054071;28;20204;-78
2024/02/28 01:42:44;;;;;;;20.03;18.17;;;;;;;5.05;77.71;101179.06;5053804;28;20251;-77
2024/02/28 01:45:14;;;;;;;20.63;18.83;;;;;;;5.05;77.20;101187.69;5053766;28;20278;-76
2024/02/28 01:47:41;;;;;;;19.43;17.63;;;;;;;5.03;76.78;101197.16;5053011;28;20580;-78
2024/02/28 01:50:08;;;;;;;20.80;18.80;;;;;;;5.05;77.21;101190.28;5053693;28;20213;-77
2024/02/28 01:52:36;;;;;;;20.97;18.90;;;;;;;5.04;77.00;101188.56;5053465;28;20266;-78
2024/02/28 01:55:02;;;;;;;19.23;17.53;;;;;;;4.98;77.13;101191.06;5053257;28;20236;-77
2024/02/28 01:57:30;;;;;;;19.67;17.87;;;;;;;5.02;77.36;101176.47;5052654;28;20258;-77
2024/02/28 01:59:57;;;;;;;18.87;17.37;;;;;;;4.93;77.75;101170.25;5043114;28;20205;-79
2024/02/28 02:02:23;;;;;;;20.13;18.27;;;;;;;4.90;78.14;101159.03;5045298;28;20205;-77
2024/02/28 02:04:52;;;;;;;19.47;17.67;;;;;;;4.90;78.27;101149.53;5053724;28;20286;-78
2024/02/28 02:07:19;;;;;;;19.40;17.70;;;;;;;4.93;78.18;101149.56;5046154;28;20631;-78
2024/02/28 02:09:46;;;;;;;19.47;17.77;;;;;;;4.97;78.00;101145.31;5052511;28;20227;-78
2024/02/28 02:12:12;;;;;;;20.70;18.70;;;;;;;4.91;78.03;101151.25;5060798;28;20205;-78
2024/02/28 02:14:40;;;;;;;19.63;17.70;;;;;;;4.89;78.06;101149.50;5052904;28;20228;-77
2024/02/28 02:17:06;;;;;;;20.77;18.77;;;;;;;4.81;78.23;101140.75;5051638;28;20221;-77
2024/02/28 02:19:33;;;;;;;20.13;18.33;;;;;;;4.79;78.59;101130.38;5052667;28;20200;-77
2024/02/28 02:22:01;;;;;;;20.30;18.50;;;;;;;4.82;78.05;101127.88;5053622;28;20201;-77
2024/02/28 02:24:29;;;;;;;20.07;18.07;;;;;;;4.80;78.88;101129.56;5052802;28;20637;-77
2024/02/28 02:26:56;;;;;;;21.27;19.27;;;;;;;4.76;78.89;101127.78;5052880;28;20197;-76
2024/02/28 02:29:22;;;;;;;21.03;18.93;;;;;;;4.56;80.17;101125.72;5044542;28;20201;-78
2024/02/28 02:31:49;;;;;;;21.83;19.70;;;;;;;4.61;80.52;101089.59;5043056;28;20618;-78
2024/02/28 02:34:15;;;;;;;19.90;18.20;;;;;;;4.66;80.29;101076.72;5053035;28;20291;-78
2024/02/28 02:36:42;;;;;;;20.70;18.90;;;;;;;4.69;80.37;101067.31;5051630;28;20278;-78
2024/02/28 02:39:08;;;;;;;22.50;20.30;;;;;;;4.75;80.37;101062.22;5053493;28;20252;-78
2024/02/28 02:41:36;;;;;;;21.63;19.63;;;;;;;4.73;80.04;101065.63;5057925;28;20201;-77
2024/02/28 02:44:02;;;;;;;20.13;18.30;;;;;;;4.73;79.64;101073.41;5054808;28;20781;-78
2024/02/28 02:46:29;;;;;;;20.57;18.63;;;;;;;4.75;79.71;101074.28;5056883;28;20209;-78
2024/02/28 02:48:55;;;;;;;21.37;19.47;;;;;;;4.67;79.81;101081.06;5055915;28;20217;-77
2024/02/28 02:51:21;;;;;;;20.83;18.83;;;;;;;4.65;79.62;101093.09;5051876;28;20201;-78
2024/02/28 02:53:48;;;;;;;18.97;17.27;;;;;;;4.59;79.85;101093.88;5052601;28;20229;-78
2024/02/28 02:56:14;;;;;;;21.17;18.97;;;;;;;4.49;80.55;101081.63;5051913;28;20225;-78
2024/02/28 02:58:42;;;;;;;20.60;18.70;;;;;;;4.46;80.53;101069.53;5052927;28;20209;-77
2024/02/28 03:01:09;;;;;;;19.30;17.30;;;;;;;4.48;80.32;101051.44;5043772;28;20205;-77
2024/02/28 03:03:37;;;;;;;20.43;18.63;;;;;;;4.44;80.35;101047.97;5053137;28;20292;-77
2024/02/28 03:06:04;;;;;;;20.10;18.17;;;;;;;4.34;80.74;101048.63;5051645;28;20225;-77
2024/02/28 03:08:31;;;;;;;20.20;18.30;;;;;;;4.18;81.45;101052.69;5059045;28;20241;-77
2024/02/28 03:10:57;;;;;;;22.63;20.27;;;;;;;4.17;80.88;101048.38;5049993;28;20676;-77
2024/02/28 03:13:24;;;;;;;20.37;18.47;;;;;;;4.23;80.29;101042.44;5051506;28;20663;-77
2024/02/28 03:15:51;;;;;;;19.90;18.10;;;;;;;4.21;79.96;101057.06;5052445;28;20777;-77
2024/02/28 03:18:18;;;;;;;21.17;18.93;;;;;;;4.13;79.68;101062.94;5060492;28;20205;-78
2024/02/28 03:20:45;;;;;;;21.07;18.73;;;;;;;4.06;79.77;101065.41;5061619;28;20198;-76
2024/02/28 03:23:11;;;;;;;20.83;18.63;;;;;;;4.05;80.19;101055.91;5054441;28;20205;-76
2024/02/28 03:25:37;;;;;;;20.03;18.03;;;;;;;3.96;80.27;101054.91;5055588;28;20220;-75
2024/02/28 03:28:04;;;;;;;19.57;17.67;;;;;;;3.97;79.92;101053.19;5053823;28;20668;-78
2024/02/28 03:30:31;;;;;;;22.57;18.97;;;;;;;3.89;80.41;101065.09;5035708;28;20205;-78
2024/02/28 03:32:58;;;;;;;20.13;18.13;;;;;;;3.80;80.46;101070.09;5053825;28;20214;-78
2024/02/28 03:35:25;;;;;;;19.77;17.97;;;;;;;3.86;79.96;101065.91;5047997;28;20271;-79
2024/02/28 03:37:51;;;;;;;19.13;17.33;;;;;;;3.79;79.96;101079.56;5055512;28;20205;-79
2024/02/28 03:40:17;;;;;;;21.07;18.43;;;;;;;3.80;79.87;101083.88;5056255;28;20209;-77
2024/02/28 03:42:44;;;;;;;19.23;17.43;;;;;;;3.71;79.73;101094.91;5054797;28;20603;-78
2024/02/28 03:45:10;;;;;;;21.47;19.20;;;;;;;3.65;79.76;101106.78;5056502;28;20266;-78
2024/02/28 03:47:36;;;;;;;19.53;17.53;;;;;;;3.72;79.78;101104.38;5056381;28;20208;-79
2024/02/28 03:50:05;;;;;;;19.60;17.67;;;;;;;3.70;79.52;101116.38;5058688;28;20213;-78
2024/02/28 03:52:31;;;;;;;19.20;17.13;;;;;;;3.71;79.95;101122.44;5059972;28;20624;-76
2024/02/28 03:54:58;;;;;;;18.23;16.53;;;;;;;3.75;79.54;101121.66;5059754;28;20707;-78
2024/02/28 03:57:24;;;;;;;18.77;17.00;;;;;;;3.65;79.72;101124.88;5060051;28;20228;-78
2024/02/28 03:59:50;;;;;;;19.17;17.27;;;;;;;3.69;79.90;101129.28;5052831;28;20254;-78
2024/02/28 04:02:17;;;;;;;18.57;16.87;;;;;;;3.62;80.12;101132.56;5049965;28;20687;-78
2024/02/28 04:04:43;;;;;;;17.23;15.53;;;;;;;3.55;80.24;101126.41;5060454;28;20964;-78
2024/02/28 04:07:11;;;;;;;19.07;17.17;;;;;;;3.53;80.44;101125.50;5060087;28;20225;-78
2024/02/28 04:09:38;;;;;;;19.20;17.40;;;;;;;3.52;80.16;101128.91;5067421;28;20205;-77
2024/02/28 04:12:04;;;;;;;19.07;17.00;;;;;;;3.50;79.74;101131.47;5060671;28;20209;-78
2024/02/28 04:14:31;;;;;;;18.83;16.93;;;;;;;3.51;79.51;101132.34;5061535;28;20250;-78
2024/02/28 04:16:57;;;;;;;19.40;17.40;;;;;;;3.40;79.35;101141.56;5064809;28;20227;-77
2024/02/28 04:19:23;;;;;;;19.47;17.47;;;;;;;3.38;79.56;101149.28;5063234;28;20224;-77
2024/02/28 04:21:50;;;;;;;19.40;17.17;;;;;;;3.36;80.03;101150.94;5061198;28;20255;-78
2024/02/28 04:24:17;;;;;;;19.27;17.37;;;;;;;3.37;79.35;101147.53;5059614;28;20285;-78
2024/02/28 04:26:44;;;;;;;20.03;16.70;;;;;;;3.35;79.34;101151.75;5058500;28;20217;-78
2024/02/28 04:29:13;;;;;;;18.60;16.90;;;;;;;3.30;79.35;101158.56;5050169;28;20213;-78
2024/02/28 04:31:40;;;;;;;17.63;16.07;;;;;;;3.22;79.83;101152.34;5059358;28;20204;-78
2024/02/28 04:34:06;;;;;;;20.67;17.23;;;;;;;3.15;80.12;101153.91;5058858;28;20225;-78
2024/02/28 04:36:33;;;;;;;18.80;16.90;;;;;;;3.19;80.29;101147.97;5058071;28;20706;-75
2024/02/28 04:39:00;;;;;;;20.13;18.03;;;;;;;3.14;80.48;101157.34;5066064;28;20257;-78
2024/02/28 04:41:28;;;;;;;20.57;18.53;;;;;;;3.15;80.73;101138.44;5059053;28;20212;-78
2024/02/28 04:43:54;;;;;;;20.00;17.90;;;;;;;3.03;81.29;101117.53;5057886;28;20232;-78
2024/02/28 04:46:21;;;;;;;19.07;17.07;;;;;;;3.05;81.44;101106.41;5057749;28;20203;-78
2024/02/28 04:48:47;;;;;;;20.70;18.60;;;;;;;3.11;80.82;101113.41;5058544;28;20334;-78
2024/02/28 04:51:16;;;;;;;19.80;17.77;;;;;;;3.07;80.73;101115.06;5059033;28;20208;-78
2024/02/28 04:53:42;;;;;;;20.63;18.43;;;;;;;3.09;80.88;101120.22;5059352;28;20206;-78
2024/02/28 04:56:09;;;;;;;18.80;16.90;;;;;;;3.03;81.16;101110.66;5067443;28;20774;-77
2024/02/28 04:58:38;;;;;;;19.23;17.30;;;;;;;2.98;81.16;101110.56;5056563;28;20232;-77
2024/02/28 05:01:04;;;;;;;19.60;17.60;;;;;;;3.04;81.45;101108.97;5037914;28;20215;-76
2024/02/28 05:03:30;;;;;;;21.90;18.10;;;;;;;2.98;81.21;101120.00;5052399;28;20254;-78
2024/02/28 05:05:57;;;;;;;19.63;17.63;;;;;;;2.95;81.25;101117.34;5060838;28;20209;-77
2024/02/28 05:08:23;;;;;;;18.97;17.07;;;;;;;2.90;81.72;101127.56;5058844;28;20218;-76
2024/02/28 05:10:50;;;;;;;19.83;17.73;;;;;;;2.92;81.74;101106.97;5067009;28;20216;-75
2024/02/28 05:13:17;;;;;;;19.27;17.27;;;;;;;2.91;81.81;101111.22;5056624;28;20206;-78
2024/02/28 05:15:44;;;;;;;21.37;17.87;;;;;;;2.84;81.90;101105.94;5056412;28;20310;-78
2024/02/28 05:18:11;;;;;;;21.57;18.37;;;;;;;2.80;82.70;101088.66;5060694;28;20256;-77
2024/02/28 05:20:37;;;;;;;17.77;15.90;;;;;;;2.85;81.75;101099.91;5053899;28;20207;-78
2024/02/28 05:23:04;;;;;;;18.60;16.67;;;;;;;2.57;83.74;101096.69;5054175;28;20219;-78
2024/02/28 05:25:30;;;;;;;20.23;18.30;;;;;;;2.59;82.93;101082.13;5053841;28;20236;-78
2024/02/28 05:27:56;;;;;;;19.17;17.17;;;;;;;2.66;82.92;101091.75;5053595;28;20231;-76
2024/02/28 05:30:23;;;;;;;18.87;16.87;;;;;;;2.66;82.50;101106.38;5037960;28;20208;-78
2024/02/28 05:32:51;;;;;;;17.77;16.07;;;;;;;2.69;82.07;101116.72;5047901;28;20230;-76
2024/02/28 05:35:17;;;;;;;19.77;16.77;;;;;;;2.70;82.47;101109.03;5054335;28;20603;-78
2024/02/28 05:37:46;;;;;;;23.30;17.17;;;;;;;2.73;81.65;101114.25;5053527;28;20274;-77
2024/02/28 05:40:13;;;;;;;23.13;18.97;;;;;;;2.70;82.27;101115.91;5052955;28;20216;-76
2024/02/28 05:42:40;;;;;;;21.20;17.97;;;;;;;2.71;82.51;101115.06;5051396;28;20295;-77
2024/02/28 05:45:07;;;;;;;21.20;17.73;;;;;;;2.82;82.35;101116.19;5060475;28;20234;-77
2024/02/28 05:47:33;;;;;;;21.27;18.53;;;;;;;2.86;81.68;101128.31;5052421;28;20204;-77
2024/02/28 05:50:01;;;;;;;23.93;18.40;;;;;;;2.88;81.73;101129.22;5051944;28;20212;-77
2024/02/28 05:52:28;;;;;;;21.37;18.43;;;;;;;2.91;82.31;101118.97;5054435;28;20695;-77
2024/02/28 05:54:54;;;;;;;23.60;19.40;;;;;;;2.88;82.69;101120.63;5052267;28;20229;-77
2024/02/28 05:57:20;;;;;;;22.43;19.70;;;;;;;2.89;83.36;101110.31;5051167;28;20250;-77
2024/02/28 05:59:46;;;;;;;22.40;19.60;;;;;;;2.81;83.74;101108.41;5038394;28;20209;-77
2024/02/28 06:02:13;;;;;;;24.03;20.20;;;;;;;2.87;84.23;101090.50;5048936;28;20750;-78
2024/02/28 06:04:40;;;;;;;23.37;20.17;;;;;;;2.95;84.32;101078.66;5051976;28;20219;-76
2024/02/28 06:07:08;;;;;;;24.20;19.47;;;;;;;2.94;84.59;101079.50;5052115;28;20640;-77
2024/02/28 06:09:34;;;;;;;24.43;19.87;;;;;;;2.96;85.00;101068.38;5051753;28;20208;-77
2024/02/28 06:12:01;;;;;;;25.43;20.67;;;;;;;3.05;84.39;101065.13;5051715;28;20219;-75
2024/02/28 06:14:28;;;;;;;24.53;19.97;;;;;;;3.07;85.01;101066.06;5053090;28;20247;-77
2024/02/28 06:16:54;;;;;;;26.23;21.27;;;;;;;3.06;84.82;101068.59;5055327;28;20309;-77
2024/02/28 06:19:20;;;;;;;23.20;19.47;;;;;;;3.08;85.39;101067.78;5054006;28;20208;-77
2024/02/28 06:21:46;;;;;;;25.50;20.70;;;;;;;3.06;85.91;101058.28;5058772;28;20270;-76
2024/02/28 06:24:14;;;;;;;25.83;19.77;;;;;;;3.16;85.81;101062.78;5052437;28;20285;-77
2024/02/28 06:26:41;;;;;;;22.00;19.60;;;;;;;3.18;86.13;101051.66;5051377;28;20274;-77
2024/02/28 06:29:08;;;;;;;27.77;21.27;;;;;;;2.78;86.82;101061.13;5044128;28;20223;-77
2024/02/28 06:31:34;;;;;;;29.13;22.30;;;;;;;2.87;86.89;101038.94;5034566;28;20203;-77
2024/02/28 06:34:02;;;;;;;28.30;22.20;;;;;;;2.72;87.61;101039.50;5052129;28;20226;-77
2024/02/28 06:36:28;;;;;;;32.77;23.13;;;;;;;2.78;87.92;101011.28;5053407;28;20721;-77
2024/02/28 06:38:54;;;;;;;32.77;22.97;;;;;;;2.92;87.97;101002.13;5057698;28;20207;-77
2024/02/28 06:41:21;;;;;;;28.37;22.33;;;;;;;3.03;87.39;101004.91;5051172;28;20201;-77
2024/02/28 06:43:47;;;;;;;28.90;22.57;;;;;;;3.11;86.50;101024.03;5052064;28;20223;-77
2024/02/28 06:46:14;;;;;;;31.53;22.93;;;;;;;3.20;86.42;101031.06;5052453;28;20682;-77
2024/02/28 06:48:40;;;;;;;31.07;21.77;;;;;;;3.23;86.57;101032.84;5052913;28;20699;-77
2024/02/28 06:51:07;;;;;;;29.90;22.90;;;;;;;3.25;86.00;101038.88;5060370;28;20212;-77
2024/02/28 06:53:33;;;;;;;30.43;21.27;;;;;;;3.31;86.23;101041.59;5052408;28;20237;-77
2024/02/28 06:55:59;;;;;;;29.10;21.63;;;;;;;3.31;86.60;101039.00;5051640;28;20247;-77
2024/02/28 06:58:27;;;;;;;28.80;22.23;;;;;;;3.43;86.93;101033.22;5052914;28;20221;-77
2024/02/28 07:00:53;;;;;;;24.23;20.53;;;;;;;3.46;87.10;101026.44;5043881;28;20201;-77
2024/02/28 07:03:20;;;;;;;27.17;20.87;;;;;;;3.48;87.20;101036.78;5052829;28;20213;-77
2024/02/28 07:05:46;;;;;;;31.90;23.17;;;;;;;3.34;86.75;101033.94;5056621;28;20228;-77
2024/02/28 07:08:13;;;;;;;31.37;22.43;;;;;;;3.45;87.22;101031.53;5055820;28;20278;-77
2024/02/28 07:10:43;;;;;;;28.27;22.97;;;;;;;3.02;87.81;101039.28;5048142;28;20204;-78
2024/02/28 07:13:09;;;;;;;35.37;22.83;;;;;;;3.13;88.39;101019.75;5057409;28;20214;-77
2024/02/28 07:15:38;;;;;;;32.90;23.20;;;;;;;3.34;88.85;101000.38;5058395;28;20227;-78
2024/02/28 07:18:04;;;;;;;34.60;23.27;;;;;;;3.45;88.81;100998.00;5057905;28;20227;-78
2024/02/28 07:20:31;;;;;;;35.10;24.13;;;;;;;3.52;89.19;100997.28;5058713;28;20224;-78
2024/02/28 07:22:57;;;;;;;35.73;23.27;;;;;;;3.52;88.91;100997.28;5057862;28;20207;-77
2024/02/28 07:25:23;;;;;;;35.63;24.50;;;;;;;3.23;88.47;101001.88;5057554;28;20663;-78
2024/02/28 07:27:50;;;;;;;36.93;23.90;;;;;;;3.38;89.57;101004.75;5052701;28;20221;-78
2024/02/28 07:30:16;;;;;;;36.30;23.27;;;;;;;3.55;88.80;100999.94;5048044;28;20205;-78
2024/02/28 07:32:44;;;;;;;31.27;23.13;;;;;;;3.49;88.35;101007.53;5064978;28;20258;-78
2024/02/28 07:35:13;;;;;;;38.53;23.90;;;;;;;3.53;88.60;101017.09;5065258;28;20262;-79
2024/02/28 07:37:39;;;;;;;37.80;24.57;;;;;;;3.60;88.14;101015.50;5064700;28;20223;-78
2024/02/28 07:40:08;;;;;;;37.63;23.87;;;;;;;3.58;88.15;101024.06;5065205;28;20254;-79
2024/02/28 07:42:34;;;;;;;41.40;28.25;;;;;;;3.80;87.70;101024.47;5064618;28;20494;-78
2024/02/28 07:45:01;;;;;;;38.13;24.80;;;;;;;3.85;86.98;101032.31;5061562;28;20281;-78
2024/02/28 07:47:27;;;;;;;39.17;24.70;;;;;;;3.94;87.11;101043.69;5064168;28;20205;-78
2024/02/28 07:49:55;;;;;;;37.97;23.93;;;;;;;4.08;87.67;101043.03;5061931;28;20228;-79
2024/02/28 07:52:21;;;;;;;41.40;26.07;;;;;;;4.17;90.02;101020.81;5054355;28;20269;-78
2024/02/28 07:54:47;;;;;;;40.93;24.67;;;;;;;4.31;90.56;100984.88;5060953;28;20223;-78
2024/02/28 07:57:15;;;;;;;38.73;23.57;;;;;;;4.44;92.18;100956.59;5059140;28;20246;-76
2024/02/28 07:59:42;;;;;;;43.50;24.60;;;;;;;4.45;91.06;100958.38;5049837;28;20239;-78
2024/02/28 08:02:11;;;;;;;41.93;26.63;;;;;;;4.20;88.81;100994.16;5062280;28;20266;-79
2024/02/28 08:04:38;;;;;;;42.87;25.23;;;;;;;4.23;89.67;101001.09;5054582;28;20225;-78
2024/02/28 08:07:05;;;;;;;43.83;25.20;;;;;;;4.18;90.25;100996.75;5056639;28;20636;-77
2024/02/28 08:09:32;;;;;;;46.63;26.30;;;;;;;4.07;91.16;101003.44;5057742;28;20211;-78
2024/02/28 08:11:58;;;;;;;46.13;26.57;;;;;;;4.16;91.22;100971.69;5046114;28;20205;-79
2024/02/28 08:14:25;;;;;;;44.10;25.63;;;;;;;4.43;90.68;100966.09;5059457;28;20266;-79
2024/02/28 08:16:51;;;;;;;46.97;26.60;;;;;;;4.46;90.22;100976.50;5059017;28;20197;-79
2024/02/28 08:19:18;;;;;;;46.40;27.37;;;;;;;3.93;90.11;101010.94;5060942;28;20199;-80
2024/02/28 08:21:44;;;;;;;48.87;28.53;;;;;;;4.03;91.06;100985.28;5066286;28;20281;-79
2024/02/28 08:24:12;;;;;;;52.03;27.53;;;;;;;3.62;92.31;100983.69;5063854;28;20220;-77
2024/02/28 08:26:38;;;;;;;48.90;26.77;;;;;;;3.68;92.71;100970.91;5059962;28;20208;-79
2024/02/28 08:29:05;;;;;;;58.13;37.13;;;;;;;3.84;93.58;100953.09;5056212;28;20430;-79
2024/02/28 08:31:31;;;;;;;55.10;30.40;;;;;;;4.10;93.64;100941.50;5054058;28;20208;-79
2024/02/28 08:33:58;;;;;;;52.07;28.60;;;;;;;4.38;92.55;100935.03;5061045;28;20278;-79
2024/02/28 08:36:24;;;;;;;51.17;28.43;;;;;;;3.89;91.85;100980.75;5061100;28;20203;-77
2024/02/28 08:38:51;;;;;;;54.57;27.93;;;;;;;3.99;92.61;100958.53;5059460;28;20217;-74
2024/02/28 08:41:19;;;;;;;50.80;27.20;;;;;;;3.66;92.61;100979.47;5051436;28;20590;-78
2024/02/28 08:43:45;;;;;;;55.93;28.30;;;;;;;3.64;93.94;100960.50;5051039;28;20208;-78
2024/02/28 08:46:17;;;;;;;57.03;29.27;;;;;;;3.40;94.40;100950.63;5050290;28;20277;-79
2024/02/28 08:48:44;;;;;;;49.07;26.97;;;;;;;3.60;95.19;100933.75;5052348;28;20222;-79
2024/02/28 08:51:10;;;;;;;53.70;27.40;;;;;;;3.35;95.97;100929.88;5052534;28;20254;-78
2024/02/28 08:53:37;;;;;;;55.37;28.00;;;;;;;3.40;96.66;100904.16;5054555;28;20226;-82
2024/02/28 08:56:04;;;;;;;52.40;27.50;;;;;;;3.40;97.70;100894.69;5058992;28;20238;-79
2024/02/28 08:58:31;;;;;;;56.80;30.03;;;;;;;3.49;97.66;100875.91;5056206;28;20223;-79
2024/02/28 09:00:58;;;;;;;58.30;30.07;;;;;;;3.78;97.08;100866.06;5050842;28;20207;-82
2024/02/28 09:03:24;;;;;;;55.53;29.13;;;;;;;3.67;96.12;100885.72;5053413;28;20617;-81
2024/02/28 09:05:51;;;;;;;48.90;28.00;;;;;;;3.89;94.96;100894.66;5069184;28;20223;-83
2024/02/28 09:08:17;;;;;;;55.50;29.83;;;;;;;4.08;94.81;100903.53;5057752;28;20213;-82
2024/02/28 09:10:43;;;;;;;46.37;26.23;;;;;;;4.11;93.21;100927.72;5057406;28;20208;-79
2024/02/28 09:13:12;;;;;;;49.70;27.00;;;;;;;4.09;94.70;100925.97;5060974;28;20208;-81
2024/02/28 09:15:39;;;;;;;50.47;26.63;;;;;;;4.37;95.26;100909.16;5061442;28;20295;-81
2024/02/28 09:18:06;;;;;;;47.50;25.33;;;;;;;4.11;93.25;100926.84;5054672;28;20285;-81
2024/02/28 09:20:32;;;;;;;40.63;26.10;;;;;;;4.25;93.37;100935.69;5052272;28;20204;-79
2024/02/28 09:22:59;;;;;;;38.37;23.70;;;;;;;4.28;93.54;100942.59;5054940;28;20209;-81
2024/02/28 09:25:25;;;;;;;44.77;24.43;;;;;;;4.28;93.00;100955.53;5050037;28;20227;-80
2024/02/28 09:27:51;;;;;;;40.43;24.33;;;;;;;4.33;93.16;100967.66;5051268;28;20683;-79
2024/02/28 09:30:18;;;;;;;43.63;24.20;;;;;;;4.44;92.94;100973.00;5048502;28;20200;-78
2024/02/28 09:32:47;;;;;;;42.67;24.67;;;;;;;4.25;91.95;101000.28;5052400;28;20204;-77
2024/02/28 09:35:13;;;;;;;40.93;24.87;;;;;;;4.09;91.73;101017.25;5052790;28;20220;-81
2024/02/28 09:37:39;;;;;;;45.33;24.27;;;;;;;3.98;93.58;100999.00;5053223;28;20603;-81
2024/02/28 09:40:10;;;;;;;44.67;25.53;;;;;;;3.93;95.27;100963.59;5052933;28;20208;-80
2024/02/28 09:42:37;;;;;;;49.97;27.27;;;;;;;4.01;94.88;100958.56;5050062;28;20660;-79
2024/02/28 09:45:04;;;;;;;48.23;26.90;;;;;;;4.03;95.37;100951.69;5051793;28;20221;-78
2024/02/28 09:47:31;;;;;;;45.20;25.73;;;;;;;4.22;95.23;100934.75;5046394;28;20197;-78
2024/02/28 09:49:59;;;;;;;45.23;25.80;;;;;;;4.56;94.14;100949.06;5052056;28;20211;-80
2024/02/28 09:52:27;;;;;;;48.13;32.58;;;;;;;4.43;92.84;100973.84;5062926;28;20431;-81
2024/02/28 09:54:53;;;;;;;40.63;26.43;;;;;;;4.84;91.76;100988.22;5060041;28;20658;-80
2024/02/28 09:57:20;;;;;;;39.53;25.27;;;;;;;4.70;90.96;101016.47;5054325;28;20617;-80
2024/02/28 09:59:48;;;;;;;42.87;24.70;;;;;;;4.76;90.64;101030.34;5053650;28;20214;-81
2024/02/28 10:02:16;;;;;;;46.83;26.30;;;;;;;4.83;90.08;101045.94;5055900;28;20278;-81
2024/02/28 10:04:42;;;;;;;42.67;25.47;;;;;;;4.74;89.47;101067.41;5057820;28;20299;-80
2024/02/28 10:07:13;;;;;;;49.87;26.10;;;;;;;4.84;90.09;101068.41;5059087;28;20241;-79
2024/02/28 10:09:40;;;;;;;52.60;26.63;;;;;;;4.77;90.71;101070.88;5067518;28;20722;-80
2024/02/28 10:12:07;;;;;;;46.13;26.43;;;;;;;4.68;90.51;101075.91;5058393;28;20207;-79
2024/02/28 10:14:33;;;;;;;42.60;25.40;;;;;;;4.46;91.87;101068.66;5058454;28;20305;-79
2024/02/28 10:17:00;;;;;;;47.53;26.67;;;;;;;4.81;92.01;101051.09;5057675;28;20233;-80
2024/02/28 10:19:26;;;;;;;43.50;25.70;;;;;;;5.11;90.77;101047.19;5059596;28;20229;-78
2024/02/28 10:21:53;;;;;;;45.73;26.33;;;;;;;4.97;90.66;101067.72;5060596;28;20256;-81
2024/02/28 10:24:24;;;;;;;42.43;25.13;;;;;;;4.83;89.30;101088.19;5058604;28;20254;-80
2024/02/28 10:26:55;;;;;;;39.67;24.27;;;;;;;5.04;89.13;101098.00;5054008;28;20793;-78
2024/02/28 10:29:21;;;;;;;46.07;26.90;;;;;;;4.80;89.38;101121.78;5050977;28;20196;-80
2024/02/28 10:31:47;;;;;;;48.53;26.83;;;;;;;4.88;90.91;101104.66;5054035;28;20242;-81
2024/02/28 10:34:17;;;;;;;44.13;26.77;;;;;;;5.00;90.61;101096.22;5060218;28;20259;-79
2024/02/28 10:36:45;;;;;;;45.03;25.97;;;;;;;5.03;91.04;101080.72;5059199;28;20209;-80
2024/02/28 10:39:12;;;;;;;44.50;26.77;;;;;;;4.96;90.56;101102.19;4702399;28;10000276;-79
2024/02/28 10:41:40;;;;;;;47.53;26.80;;;;;;;4.76;91.52;101092.41;5044942;28;20629;-81
2024/02/28 10:44:07;;;;;;;43.80;26.50;;;;;;;5.22;91.19;101081.00;5051087;28;20250;-80
2024/02/28 10:46:33;;;;;;;46.93;26.80;;;;;;;4.99;89.91;101120.34;5049670;28;20209;-79
2024/02/28 10:49:00;;;;;;;48.47;26.73;;;;;;;5.39;88.52;101126.06;5050369;28;20205;-81
2024/02/28 10:51:27;;;;;;;43.93;25.57;;;;;;;4.88;89.21;101145.19;5049467;28;20220;-79
2024/02/28 10:54:02;;;;;;;42.83;27.20;;;;;;;4.87;89.85;101130.50;5048759;28;20233;-81
2024/02/28 10:56:31;;;;;;;51.87;28.17;;;;;;;5.07;89.72;101123.03;5058179;28;20261;-81
2024/02/28 10:59:00;;;;;;;44.37;27.20;;;;;;;5.35;89.91;101108.75;5047412;28;20235;-80
2024/02/28 11:01:27;;;;;;;45.17;28.00;;;;;;;5.33;87.78;101132.06;5045790;28;20196;-80
2024/02/28 11:03:54;;;;;;;47.03;27.83;;;;;;;5.37;87.77;101148.47;5048720;28;20225;-80
2024/02/28 11:06:22;;;;;;;48.87;27.70;;;;;;;5.45;87.08;101159.84;5049087;28;20204;-80
2024/02/28 11:08:52;;;;;;;66.57;38.03;;;;;;;5.25;88.60;101163.84;5046395;28;20206;-80
2024/02/28 11:11:20;;;;;;;49.63;28.27;;;;;;;5.27;87.58;101162.16;5045967;28;20670;-77
2024/02/28 11:13:53;;;;;;;48.87;29.03;;;;;;;5.28;87.91;101166.50;5042922;28;20198;-75